sensor_id;sensor_type;location;lat;lon;timestamp;temperature;humidity
56076;DHT22;41951;49.022;12.066;2023-07-16T00:00:14;24.30;99.90
56076;DHT22;41951;49.022;12.066;2023-07-16T00:02:41;24.30;99.90
56076;DHT22;41951;49.022;12.066;2023-07-16T00:05:06;24.40;99.90
56076;DHT22;41951;49.022;12.066;2023-07-16T00:07:32;24.30;99.90
56076;DHT22;41951;49.022;12.066;2023-07-16T00:09:58;24.20;99.90
56076;DHT22;41951;49.022;12.066;2023-07-16T00:12:23;24.00;99.90
56076;DHT22;41951;49.022;12.066;2023-07-16T00:14:49;24.10;99.90
56076;DHT22;41951;49.022;12.066;2023-07-16T00:17:14;23.90;99.90
56076;DHT22;41951;49.022;12.066;2023-07-16T00:19:40;23.90;99.90
56076;DHT22;41951;49.022;12.066;2023-07-16T00:22:06;23.90;99.90
56076;DHT22;41951;49.022;12.066;2023-07-16T00:24:32;23.90;99.90
56076;DHT22;41951;49.022;12.066;2023-07-16T00:26:58;23.90;99.90
56076;DHT22;41951;49.022;12.066;2023-07-16T00:29:23;23.80;99.90
56076;DHT22;41951;49.022;12.066;2023-07-16T00:31:49;23.80;99.90
56076;DHT22;41951;49.022;12.066;2023-07-16T00:34:15;23.80;99.90
56076;DHT22;41951;49.022;12.066;2023-07-16T00:36:40;23.90;99.90
56076;DHT22;41951;49.022;12.066;2023-07-16T00:39:06;23.90;99.90
56076;DHT22;41951;49.022;12.066;2023-07-16T00:41:31;23.90;99.90
56076;DHT22;41951;49.022;12.066;2023-07-16T00:43:57;23.90;99.90
56076;DHT22;41951;49.022;12.066;2023-07-16T00:46:24;23.80;99.90
56076;DHT22;41951;49.022;12.066;2023-07-16T00:48:50;23.70;99.90
56076;DHT22;41951;49.022;12.066;2023-07-16T00:51:16;23.60;99.90
56076;DHT22;41951;49.022;12.066;2023-07-16T00:53:42;23.50;99.90
56076;DHT22;41951;49.022;12.066;2023-07-16T00:56:10;23.40;99.90
56076;DHT22;41951;49.022;12.066;2023-07-16T00:58:36;23.30;99.90
56076;DHT22;41951;49.022;12.066;2023-07-16T01:01:01;23.30;99.90
56076;DHT22;41951;49.022;12.066;2023-07-16T01:03:27;23.30;99.90
56076;DHT22;41951;49.022;12.066;2023-07-16T01:06:11;23.20;99.90
56076;DHT22;41951;49.022;12.066;2023-07-16T01:08:42;23.20;99.90
56076;DHT22;41951;49.022;12.066;2023-07-16T01:11:10;23.30;99.90
56076;DHT22;41951;49.022;12.066;2023-07-16T01:13:36;23.30;99.90
56076;DHT22;41951;49.022;12.066;2023-07-16T01:16:02;23.30;99.90
56076;DHT22;41951;49.022;12.066;2023-07-16T01:18:28;23.20;99.90
56076;DHT22;41951;49.022;12.066;2023-07-16T01:20:54;23.20;99.90
56076;DHT22;41951;49.022;12.066;2023-07-16T01:23:26;23.20;99.90
56076;DHT22;41951;49.022;12.066;2023-07-16T01:26:26;23.20;99.90
56076;DHT22;41951;49.022;12.066;2023-07-16T01:29:32;23.00;99.90
56076;DHT22;41951;49.022;12.066;2023-07-16T01:32:00;22.90;99.90
56076;DHT22;41951;49.022;12.066;2023-07-16T01:34:31;22.90;99.90
56076;DHT22;41951;49.022;12.066;2023-07-16T01:37:01;22.80;99.90
56076;DHT22;41951;49.022;12.066;2023-07-16T01:39:27;22.60;99.90
56076;DHT22;41951;49.022;12.066;2023-07-16T01:41:53;22.40;99.90
56076;DHT22;41951;49.022;12.066;2023-07-16T01:44:19;22.20;99.90
56076;DHT22;41951;49.022;12.066;2023-07-16T01:46:58;22.20;99.90
56076;DHT22;41951;49.022;12.066;2023-07-16T01:49:28;22.10;99.90
56076;DHT22;41951;49.022;12.066;2023-07-16T01:51:54;22.00;99.90
56076;DHT22;41951;49.022;12.066;2023-07-16T01:54:20;22.10;99.90
56076;DHT22;41951;49.022;12.066;2023-07-16T01:56:45;22.00;99.90
56076;DHT22;41951;49.022;12.066;2023-07-16T01:59:11;21.90;99.90
56076;DHT22;41951;49.022;12.066;2023-07-16T02:01:36;21.80;99.90
56076;DHT22;41951;49.022;12.066;2023-07-16T02:04:02;21.70;99.90
56076;DHT22;41951;49.022;12.066;2023-07-16T02:06:28;21.50;99.90
56076;DHT22;41951;49.022;12.066;2023-07-16T02:08:53;21.60;99.90
56076;DHT22;41951;49.022;12.066;2023-07-16T02:14:41;21.60;99.90
56076;DHT22;41951;49.022;12.066;2023-07-16T02:17:06;21.70;99.90
56076;DHT22;41951;49.022;12.066;2023-07-16T02:19:32;21.80;99.90
56076;DHT22;41951;49.022;12.066;2023-07-16T02:21:57;21.80;99.90
56076;DHT22;41951;49.022;12.066;2023-07-16T02:24:23;21.70;99.90
56076;DHT22;41951;49.022;12.066;2023-07-16T02:26:49;21.70;99.90
56076;DHT22;41951;49.022;12.066;2023-07-16T02:29:14;21.80;99.90
56076;DHT22;41951;49.022;12.066;2023-07-16T02:31:40;21.80;99.90
56076;DHT22;41951;49.022;12.066;2023-07-16T02:34:06;21.80;99.90
56076;DHT22;41951;49.022;12.066;2023-07-16T02:36:31;21.80;99.90
56076;DHT22;41951;49.022;12.066;2023-07-16T02:38:57;21.80;99.90
56076;DHT22;41951;49.022;12.066;2023-07-16T02:41:22;21.60;99.90
56076;DHT22;41951;49.022;12.066;2023-07-16T02:43:48;21.60;99.90
56076;DHT22;41951;49.022;12.066;2023-07-16T02:46:23;21.70;99.90
56076;DHT22;41951;49.022;12.066;2023-07-16T02:48:49;21.60;99.90
56076;DHT22;41951;49.022;12.066;2023-07-16T02:51:14;21.70;99.90
56076;DHT22;41951;49.022;12.066;2023-07-16T02:53:40;21.70;99.90
56076;DHT22;41951;49.022;12.066;2023-07-16T02:56:06;21.70;99.90
56076;DHT22;41951;49.022;12.066;2023-07-16T02:58:31;21.70;99.90
56076;DHT22;41951;49.022;12.066;2023-07-16T03:00:57;21.50;99.90
56076;DHT22;41951;49.022;12.066;2023-07-16T03:03:22;21.40;99.90
56076;DHT22;41951;49.022;12.066;2023-07-16T03:05:48;21.30;99.90
56076;DHT22;41951;49.022;12.066;2023-07-16T03:08:13;21.20;99.90
56076;DHT22;41951;49.022;12.066;2023-07-16T03:10:39;21.30;99.90
56076;DHT22;41951;49.022;12.066;2023-07-16T03:13:05;21.40;99.90
56076;DHT22;41951;49.022;12.066;2023-07-16T03:15:30;21.30;99.90
56076;DHT22;41951;49.022;12.066;2023-07-16T03:17:56;21.20;99.90
56076;DHT22;41951;49.022;12.066;2023-07-16T03:20:21;21.30;99.90
56076;DHT22;41951;49.022;12.066;2023-07-16T03:22:48;21.40;99.90
56076;DHT22;41951;49.022;12.066;2023-07-16T03:25:13;21.40;99.90
56076;DHT22;41951;49.022;12.066;2023-07-16T03:27:40;21.40;99.90
56076;DHT22;41951;49.022;12.066;2023-07-16T03:30:06;21.40;99.90
56076;DHT22;41951;49.022;12.066;2023-07-16T03:32:32;21.10;99.90
56076;DHT22;41951;49.022;12.066;2023-07-16T03:34:57;21.10;99.90
56076;DHT22;41951;49.022;12.066;2023-07-16T03:37:23;21.00;99.90
56076;DHT22;41951;49.022;12.066;2023-07-16T03:39:48;21.00;99.90
56076;DHT22;41951;49.022;12.066;2023-07-16T03:42:14;21.00;99.90
56076;DHT22;41951;49.022;12.066;2023-07-16T03:44:39;21.10;99.90
56076;DHT22;41951;49.022;12.066;2023-07-16T03:47:05;21.20;99.90
56076;DHT22;41951;49.022;12.066;2023-07-16T03:49:31;21.30;99.90
56076;DHT22;41951;49.022;12.066;2023-07-16T03:51:56;21.30;99.90
56076;DHT22;41951;49.022;12.066;2023-07-16T03:54:22;21.40;99.90
56076;DHT22;41951;49.022;12.066;2023-07-16T03:56:47;21.50;99.90
56076;DHT22;41951;49.022;12.066;2023-07-16T03:59:13;21.40;99.90
56076;DHT22;41951;49.022;12.066;2023-07-16T04:01:38;21.40;99.90
56076;DHT22;41951;49.022;12.066;2023-07-16T04:04:04;21.40;99.90
56076;DHT22;41951;49.022;12.066;2023-07-16T04:06:29;21.40;99.90
56076;DHT22;41951;49.022;12.066;2023-07-16T04:08:55;21.50;99.90
56076;DHT22;41951;49.022;12.066;2023-07-16T04:11:21;21.50;99.90
56076;DHT22;41951;49.022;12.066;2023-07-16T04:13:46;21.40;99.90
56076;DHT22;41951;49.022;12.066;2023-07-16T04:16:12;21.30;99.90
56076;DHT22;41951;49.022;12.066;2023-07-16T04:18:37;21.20;99.90
56076;DHT22;41951;49.022;12.066;2023-07-16T04:21:03;21.20;99.90
56076;DHT22;41951;49.022;12.066;2023-07-16T04:23:28;21.30;99.90
56076;DHT22;41951;49.022;12.066;2023-07-16T04:25:55;21.30;99.90
56076;DHT22;41951;49.022;12.066;2023-07-16T04:28:20;21.30;99.90
56076;DHT22;41951;49.022;12.066;2023-07-16T04:30:46;21.30;99.90
56076;DHT22;41951;49.022;12.066;2023-07-16T04:33:12;21.20;99.90
56076;DHT22;41951;49.022;12.066;2023-07-16T04:35:37;21.00;99.90
56076;DHT22;41951;49.022;12.066;2023-07-16T04:38:03;21.00;99.90
56076;DHT22;41951;49.022;12.066;2023-07-16T04:40:31;21.00;99.90
56076;DHT22;41951;49.022;12.066;2023-07-16T04:42:57;21.00;99.90
56076;DHT22;41951;49.022;12.066;2023-07-16T04:45:23;21.10;99.90
56076;DHT22;41951;49.022;12.066;2023-07-16T04:47:48;21.00;99.90
56076;DHT22;41951;49.022;12.066;2023-07-16T04:50:14;21.00;99.90
56076;DHT22;41951;49.022;12.066;2023-07-16T04:52:39;21.00;99.90
56076;DHT22;41951;49.022;12.066;2023-07-16T04:55:05;21.00;99.90
56076;DHT22;41951;49.022;12.066;2023-07-16T04:57:32;21.00;99.90
56076;DHT22;41951;49.022;12.066;2023-07-16T04:59:58;21.00;99.90
56076;DHT22;41951;49.022;12.066;2023-07-16T05:02:24;20.90;99.90
56076;DHT22;41951;49.022;12.066;2023-07-16T05:04:49;21.00;99.90
56076;DHT22;41951;49.022;12.066;2023-07-16T05:07:15;21.00;99.90
56076;DHT22;41951;49.022;12.066;2023-07-16T05:09:42;21.10;99.90
56076;DHT22;41951;49.022;12.066;2023-07-16T05:12:08;21.00;99.90
56076;DHT22;41951;49.022;12.066;2023-07-16T05:14:43;21.00;99.90
56076;DHT22;41951;49.022;12.066;2023-07-16T05:17:10;21.00;99.90
56076;DHT22;41951;49.022;12.066;2023-07-16T05:19:35;21.00;99.90
56076;DHT22;41951;49.022;12.066;2023-07-16T05:22:01;21.00;99.90
56076;DHT22;41951;49.022;12.066;2023-07-16T05:24:27;21.00;99.90
56076;DHT22;41951;49.022;12.066;2023-07-16T05:26:52;21.00;99.90
56076;DHT22;41951;49.022;12.066;2023-07-16T05:29:19;20.90;99.90
56076;DHT22;41951;49.022;12.066;2023-07-16T05:31:45;20.80;99.90
56076;DHT22;41951;49.022;12.066;2023-07-16T05:34:12;20.90;99.90
56076;DHT22;41951;49.022;12.066;2023-07-16T05:36:43;20.70;99.90
56076;DHT22;41951;49.022;12.066;2023-07-16T05:39:12;20.70;99.90
56076;DHT22;41951;49.022;12.066;2023-07-16T05:41:42;20.60;99.90
56076;DHT22;41951;49.022;12.066;2023-07-16T05:44:08;20.60;99.90
56076;DHT22;41951;49.022;12.066;2023-07-16T05:46:34;20.50;99.90
56076;DHT22;41951;49.022;12.066;2023-07-16T05:48:59;20.50;99.90
56076;DHT22;41951;49.022;12.066;2023-07-16T05:51:31;20.50;99.90
56076;DHT22;41951;49.022;12.066;2023-07-16T05:53:57;20.50;99.90
56076;DHT22;41951;49.022;12.066;2023-07-16T05:56:23;20.40;99.90
56076;DHT22;41951;49.022;12.066;2023-07-16T05:58:48;20.40;99.90
56076;DHT22;41951;49.022;12.066;2023-07-16T06:01:14;20.50;99.90
56076;DHT22;41951;49.022;12.066;2023-07-16T06:03:39;20.40;99.90
56076;DHT22;41951;49.022;12.066;2023-07-16T06:06:05;20.40;99.90
56076;DHT22;41951;49.022;12.066;2023-07-16T06:08:33;20.40;99.90
56076;DHT22;41951;49.022;12.066;2023-07-16T06:10:59;20.50;99.90
56076;DHT22;41951;49.022;12.066;2023-07-16T06:13:24;20.40;99.90
56076;DHT22;41951;49.022;12.066;2023-07-16T06:15:50;20.40;99.90
56076;DHT22;41951;49.022;12.066;2023-07-16T06:18:15;20.50;99.90
56076;DHT22;41951;49.022;12.066;2023-07-16T06:20:45;20.60;99.90
56076;DHT22;41951;49.022;12.066;2023-07-16T06:23:14;20.70;99.90
56076;DHT22;41951;49.022;12.066;2023-07-16T06:25:42;20.70;99.90
56076;DHT22;41951;49.022;12.066;2023-07-16T06:28:10;20.70;99.90
56076;DHT22;41951;49.022;12.066;2023-07-16T06:30:35;20.70;99.90
56076;DHT22;41951;49.022;12.066;2023-07-16T06:33:01;20.60;99.90
56076;DHT22;41951;49.022;12.066;2023-07-16T06:35:26;20.60;99.90
56076;DHT22;41951;49.022;12.066;2023-07-16T06:37:52;20.40;99.90
56076;DHT22;41951;49.022;12.066;2023-07-16T06:40:18;20.50;99.90
56076;DHT22;41951;49.022;12.066;2023-07-16T06:42:43;20.50;99.90
56076;DHT22;41951;49.022;12.066;2023-07-16T06:45:09;20.50;99.90
56076;DHT22;41951;49.022;12.066;2023-07-16T06:47:35;20.50;99.90
56076;DHT22;41951;49.022;12.066;2023-07-16T06:50:00;20.40;99.90
56076;DHT22;41951;49.022;12.066;2023-07-16T06:52:26;20.50;99.90
56076;DHT22;41951;49.022;12.066;2023-07-16T06:54:53;20.50;99.90
56076;DHT22;41951;49.022;12.066;2023-07-16T06:57:19;20.50;99.90
56076;DHT22;41951;49.022;12.066;2023-07-16T06:59:45;20.50;99.90
56076;DHT22;41951;49.022;12.066;2023-07-16T07:02:12;20.40;99.90
56076;DHT22;41951;49.022;12.066;2023-07-16T07:04:37;20.30;99.90
56076;DHT22;41951;49.022;12.066;2023-07-16T07:07:03;20.30;99.90
56076;DHT22;41951;49.022;12.066;2023-07-16T07:09:29;20.30;99.90
56076;DHT22;41951;49.022;12.066;2023-07-16T07:11:55;20.30;99.90
56076;DHT22;41951;49.022;12.066;2023-07-16T07:14:20;20.20;99.90
56076;DHT22;41951;49.022;12.066;2023-07-16T07:16:46;20.30;99.90
56076;DHT22;41951;49.022;12.066;2023-07-16T07:19:11;20.40;99.90
56076;DHT22;41951;49.022;12.066;2023-07-16T07:21:37;20.40;99.90
56076;DHT22;41951;49.022;12.066;2023-07-16T07:24:03;20.40;99.90
56076;DHT22;41951;49.022;12.066;2023-07-16T07:26:28;20.30;99.90
56076;DHT22;41951;49.022;12.066;2023-07-16T07:28:54;20.40;99.90
56076;DHT22;41951;49.022;12.066;2023-07-16T07:31:19;20.40;99.90
56076;DHT22;41951;49.022;12.066;2023-07-16T07:33:45;20.50;99.90
56076;DHT22;41951;49.022;12.066;2023-07-16T07:36:11;20.60;99.90
56076;DHT22;41951;49.022;12.066;2023-07-16T07:38:36;20.70;99.90
56076;DHT22;41951;49.022;12.066;2023-07-16T07:41:02;20.80;99.90
56076;DHT22;41951;49.022;12.066;2023-07-16T07:43:27;20.90;99.90
56076;DHT22;41951;49.022;12.066;2023-07-16T07:45:53;21.00;99.90
56076;DHT22;41951;49.022;12.066;2023-07-16T07:48:18;20.90;99.90
56076;DHT22;41951;49.022;12.066;2023-07-16T07:50:46;21.00;99.90
56076;DHT22;41951;49.022;12.066;2023-07-16T07:53:12;21.00;99.90
56076;DHT22;41951;49.022;12.066;2023-07-16T07:55:39;21.00;99.90
56076;DHT22;41951;49.022;12.066;2023-07-16T07:58:05;20.90;99.90
56076;DHT22;41951;49.022;12.066;2023-07-16T08:00:31;21.00;99.90
56076;DHT22;41951;49.022;12.066;2023-07-16T08:02:56;21.00;99.90
56076;DHT22;41951;49.022;12.066;2023-07-16T08:05:22;21.10;99.90
56076;DHT22;41951;49.022;12.066;2023-07-16T08:07:47;21.00;99.90
56076;DHT22;41951;49.022;12.066;2023-07-16T08:10:13;21.00;99.90
56076;DHT22;41951;49.022;12.066;2023-07-16T08:12:39;20.90;99.90
56076;DHT22;41951;49.022;12.066;2023-07-16T08:15:05;20.80;99.90
56076;DHT22;41951;49.022;12.066;2023-07-16T08:17:32;20.80;99.90
56076;DHT22;41951;49.022;12.066;2023-07-16T08:19:58;20.90;99.90
56076;DHT22;41951;49.022;12.066;2023-07-16T08:22:23;20.90;99.90
56076;DHT22;41951;49.022;12.066;2023-07-16T08:24:51;20.90;99.90
56076;DHT22;41951;49.022;12.066;2023-07-16T08:27:16;20.80;99.90
56076;DHT22;41951;49.022;12.066;2023-07-16T08:29:42;20.80;99.90
56076;DHT22;41951;49.022;12.066;2023-07-16T08:32:08;20.70;99.90
56076;DHT22;41951;49.022;12.066;2023-07-16T08:34:33;20.60;99.90
56076;DHT22;41951;49.022;12.066;2023-07-16T08:36:59;20.60;99.90
56076;DHT22;41951;49.022;12.066;2023-07-16T08:39:24;20.60;99.90
56076;DHT22;41951;49.022;12.066;2023-07-16T08:41:50;20.60;99.90
56076;DHT22;41951;49.022;12.066;2023-07-16T08:44:17;20.70;99.90
56076;DHT22;41951;49.022;12.066;2023-07-16T08:46:42;20.50;99.90
56076;DHT22;41951;49.022;12.066;2023-07-16T08:49:08;20.50;99.90
56076;DHT22;41951;49.022;12.066;2023-07-16T08:51:35;20.50;99.90
56076;DHT22;41951;49.022;12.066;2023-07-16T08:54:01;20.50;99.90
56076;DHT22;41951;49.022;12.066;2023-07-16T08:56:27;20.50;99.90
56076;DHT22;41951;49.022;12.066;2023-07-16T08:58:55;20.60;99.90
56076;DHT22;41951;49.022;12.066;2023-07-16T09:01:23;20.70;99.90
56076;DHT22;41951;49.022;12.066;2023-07-16T09:03:49;20.80;99.90
56076;DHT22;41951;49.022;12.066;2023-07-16T09:06:15;20.90;99.90
56076;DHT22;41951;49.022;12.066;2023-07-16T09:08:40;21.00;99.90
56076;DHT22;41951;49.022;12.066;2023-07-16T09:11:11;21.00;99.90
56076;DHT22;41951;49.022;12.066;2023-07-16T09:13:36;21.00;99.90
56076;DHT22;41951;49.022;12.066;2023-07-16T09:16:02;21.00;99.90
56076;DHT22;41951;49.022;12.066;2023-07-16T09:18:28;21.10;99.90
56076;DHT22;41951;49.022;12.066;2023-07-16T09:21:00;21.20;99.90
56076;DHT22;41951;49.022;12.066;2023-07-16T09:23:33;21.20;99.90
56076;DHT22;41951;49.022;12.066;2023-07-16T09:25:59;21.30;99.90
56076;DHT22;41951;49.022;12.066;2023-07-16T09:28:25;21.30;99.90
56076;DHT22;41951;49.022;12.066;2023-07-16T09:30:51;21.40;99.90
56076;DHT22;41951;49.022;12.066;2023-07-16T09:33:19;21.30;99.90
56076;DHT22;41951;49.022;12.066;2023-07-16T09:35:48;21.30;99.90
56076;DHT22;41951;49.022;12.066;2023-07-16T09:38:14;21.20;99.90
56076;DHT22;41951;49.022;12.066;2023-07-16T09:40:40;21.30;99.90
56076;DHT22;41951;49.022;12.066;2023-07-16T09:43:08;21.20;99.90
56076;DHT22;41951;49.022;12.066;2023-07-16T09:45:34;21.20;99.90
56076;DHT22;41951;49.022;12.066;2023-07-16T09:48:00;21.20;99.90
56076;DHT22;41951;49.022;12.066;2023-07-16T09:50:28;21.20;99.90
56076;DHT22;41951;49.022;12.066;2023-07-16T09:52:56;21.20;99.90
56076;DHT22;41951;49.022;12.066;2023-07-16T09:55:23;21.30;99.90
56076;DHT22;41951;49.022;12.066;2023-07-16T09:57:50;21.30;99.90
56076;DHT22;41951;49.022;12.066;2023-07-16T10:00:17;21.20;99.90
56076;DHT22;41951;49.022;12.066;2023-07-16T10:02:44;21.00;99.90
56076;DHT22;41951;49.022;12.066;2023-07-16T10:05:24;21.10;99.90
56076;DHT22;41951;49.022;12.066;2023-07-16T10:07:58;21.30;99.90
56076;DHT22;41951;49.022;12.066;2023-07-16T10:13:11;21.70;99.90
56076;DHT22;41951;49.022;12.066;2023-07-16T10:15:38;21.90;99.90
56076;DHT22;41951;49.022;12.066;2023-07-16T10:18:04;22.10;99.90
56076;DHT22;41951;49.022;12.066;2023-07-16T10:20:32;22.10;99.90
56076;DHT22;41951;49.022;12.066;2023-07-16T10:22:58;22.20;99.90
56076;DHT22;41951;49.022;12.066;2023-07-16T10:25:27;22.20;99.90
56076;DHT22;41951;49.022;12.066;2023-07-16T10:27:53;22.30;99.90
56076;DHT22;41951;49.022;12.066;2023-07-16T10:30:20;22.20;99.90
56076;DHT22;41951;49.022;12.066;2023-07-16T10:32:46;22.40;99.90
56076;DHT22;41951;49.022;12.066;2023-07-16T10:35:12;22.60;99.90
56076;DHT22;41951;49.022;12.066;2023-07-16T10:37:39;22.60;99.90
56076;DHT22;41951;49.022;12.066;2023-07-16T10:40:05;22.70;99.90
56076;DHT22;41951;49.022;12.066;2023-07-16T10:42:34;22.60;99.90
56076;DHT22;41951;49.022;12.066;2023-07-16T10:45:01;22.40;99.90
56076;DHT22;41951;49.022;12.066;2023-07-16T10:47:35;22.40;99.90
56076;DHT22;41951;49.022;12.066;2023-07-16T10:50:07;22.60;99.90
56076;DHT22;41951;49.022;12.066;2023-07-16T10:52:34;22.90;99.90
56076;DHT22;41951;49.022;12.066;2023-07-16T10:55:00;22.90;99.90
56076;DHT22;41951;49.022;12.066;2023-07-16T10:57:26;22.80;99.90
56076;DHT22;41951;49.022;12.066;2023-07-16T10:59:54;22.80;99.90
56076;DHT22;41951;49.022;12.066;2023-07-16T11:02:21;22.90;99.90
56076;DHT22;41951;49.022;12.066;2023-07-16T11:04:48;22.90;99.90
56076;DHT22;41951;49.022;12.066;2023-07-16T11:07:14;22.80;99.90
56076;DHT22;41951;49.022;12.066;2023-07-16T11:09:51;22.90;99.90
56076;DHT22;41951;49.022;12.066;2023-07-16T11:12:23;23.10;99.90
56076;DHT22;41951;49.022;12.066;2023-07-16T11:14:53;23.30;99.90
56076;DHT22;41951;49.022;12.066;2023-07-16T11:17:21;23.40;99.90
56076;DHT22;41951;49.022;12.066;2023-07-16T11:19:49;23.50;99.90
56076;DHT22;41951;49.022;12.066;2023-07-16T11:22:15;23.60;99.90
56076;DHT22;41951;49.022;12.066;2023-07-16T11:24:45;23.70;99.90
56076;DHT22;41951;49.022;12.066;2023-07-16T11:27:14;23.70;99.90
56076;DHT22;41951;49.022;12.066;2023-07-16T11:29:44;23.30;99.90
56076;DHT22;41951;49.022;12.066;2023-07-16T11:32:10;23.10;99.90
56076;DHT22;41951;49.022;12.066;2023-07-16T11:34:35;23.20;99.90
56076;DHT22;41951;49.022;12.066;2023-07-16T11:37:11;23.50;99.90
56076;DHT22;41951;49.022;12.066;2023-07-16T11:39:36;23.70;99.90
56076;DHT22;41951;49.022;12.066;2023-07-16T11:42:04;23.80;99.90
56076;DHT22;41951;49.022;12.066;2023-07-16T11:44:36;24.00;99.90
56076;DHT22;41951;49.022;12.066;2023-07-16T11:47:05;24.20;99.90
56076;DHT22;41951;49.022;12.066;2023-07-16T11:49:31;24.30;99.90
56076;DHT22;41951;49.022;12.066;2023-07-16T11:51:57;24.20;99.90
56076;DHT22;41951;49.022;12.066;2023-07-16T11:54:23;24.20;99.90
56076;DHT22;41951;49.022;12.066;2023-07-16T11:56:49;24.20;99.90
56076;DHT22;41951;49.022;12.066;2023-07-16T11:59:16;24.30;99.90
56076;DHT22;41951;49.022;12.066;2023-07-16T12:01:46;24.20;99.90
56076;DHT22;41951;49.022;12.066;2023-07-16T12:04:12;24.20;99.90
56076;DHT22;41951;49.022;12.066;2023-07-16T12:06:38;24.30;99.90
56076;DHT22;41951;49.022;12.066;2023-07-16T12:09:03;24.30;99.90
56076;DHT22;41951;49.022;12.066;2023-07-16T12:11:29;24.20;99.90
56076;DHT22;41951;49.022;12.066;2023-07-16T12:13:55;24.30;99.90
56076;DHT22;41951;49.022;12.066;2023-07-16T12:16:21;24.30;99.90
56076;DHT22;41951;49.022;12.066;2023-07-16T12:18:46;24.30;99.90
56076;DHT22;41951;49.022;12.066;2023-07-16T12:21:12;24.50;99.90
56076;DHT22;41951;49.022;12.066;2023-07-16T12:23:37;24.80;99.90
56076;DHT22;41951;49.022;12.066;2023-07-16T12:26:03;25.10;99.90
56076;DHT22;41951;49.022;12.066;2023-07-16T12:28:28;25.40;99.90
56076;DHT22;41951;49.022;12.066;2023-07-16T12:30:54;25.70;99.90
56076;DHT22;41951;49.022;12.066;2023-07-16T12:33:19;25.90;99.90
56076;DHT22;41951;49.022;12.066;2023-07-16T12:35:45;26.00;99.90
56076;DHT22;41951;49.022;12.066;2023-07-16T12:38:12;26.20;99.90
56076;DHT22;41951;49.022;12.066;2023-07-16T12:40:38;26.20;99.90
56076;DHT22;41951;49.022;12.066;2023-07-16T12:43:06;25.80;99.90
56076;DHT22;41951;49.022;12.066;2023-07-16T12:45:32;26.40;99.90
56076;DHT22;41951;49.022;12.066;2023-07-16T12:47:58;26.30;99.90
56076;DHT22;41951;49.022;12.066;2023-07-16T12:50:23;26.20;99.90
56076;DHT22;41951;49.022;12.066;2023-07-16T12:52:51;26.10;99.90
56076;DHT22;41951;49.022;12.066;2023-07-16T12:55:17;26.10;99.90
56076;DHT22;41951;49.022;12.066;2023-07-16T12:57:43;26.20;99.90
56076;DHT22;41951;49.022;12.066;2023-07-16T13:00:08;26.30;99.90
56076;DHT22;41951;49.022;12.066;2023-07-16T13:02:36;26.40;99.90
56076;DHT22;41951;49.022;12.066;2023-07-16T13:05:02;26.40;99.90
56076;DHT22;41951;49.022;12.066;2023-07-16T13:07:28;26.70;99.90
56076;DHT22;41951;49.022;12.066;2023-07-16T13:09:54;26.60;99.90
56076;DHT22;41951;49.022;12.066;2023-07-16T13:12:19;26.70;99.90
56076;DHT22;41951;49.022;12.066;2023-07-16T13:14:45;26.70;99.90
56076;DHT22;41951;49.022;12.066;2023-07-16T13:17:11;26.90;99.90
56076;DHT22;41951;49.022;12.066;2023-07-16T13:19:37;27.20;99.90
56076;DHT22;41951;49.022;12.066;2023-07-16T13:22:02;27.10;99.90
56076;DHT22;41951;49.022;12.066;2023-07-16T13:24:28;27.30;99.90
56076;DHT22;41951;49.022;12.066;2023-07-16T13:26:53;27.40;99.90
56076;DHT22;41951;49.022;12.066;2023-07-16T13:29:19;27.40;99.90
56076;DHT22;41951;49.022;12.066;2023-07-16T13:31:44;27.20;99.90
56076;DHT22;41951;49.022;12.066;2023-07-16T13:34:10;27.00;99.90
56076;DHT22;41951;49.022;12.066;2023-07-16T13:36:36;26.80;99.90
56076;DHT22;41951;49.022;12.066;2023-07-16T13:39:01;26.60;99.90
56076;DHT22;41951;49.022;12.066;2023-07-16T13:41:28;26.90;99.90
56076;DHT22;41951;49.022;12.066;2023-07-16T13:43:54;27.20;99.90
56076;DHT22;41951;49.022;12.066;2023-07-16T13:46:19;27.50;99.90
56076;DHT22;41951;49.022;12.066;2023-07-16T13:48:45;27.70;99.90
56076;DHT22;41951;49.022;12.066;2023-07-16T13:51:11;27.80;99.90
56076;DHT22;41951;49.022;12.066;2023-07-16T13:53:36;27.90;99.90
56076;DHT22;41951;49.022;12.066;2023-07-16T13:56:02;28.10;99.90
56076;DHT22;41951;49.022;12.066;2023-07-16T13:58:27;28.20;99.90
56076;DHT22;41951;49.022;12.066;2023-07-16T14:00:53;28.10;99.90
56076;DHT22;41951;49.022;12.066;2023-07-16T14:03:18;28.10;99.90
56076;DHT22;41951;49.022;12.066;2023-07-16T14:05:44;28.40;99.90
56076;DHT22;41951;49.022;12.066;2023-07-16T14:08:10;28.40;99.90
56076;DHT22;41951;49.022;12.066;2023-07-16T14:10:35;28.80;99.90
56076;DHT22;41951;49.022;12.066;2023-07-16T14:13:01;28.80;99.90
56076;DHT22;41951;49.022;12.066;2023-07-16T14:15:26;28.90;99.90
56076;DHT22;41951;49.022;12.066;2023-07-16T14:17:52;28.80;99.90
56076;DHT22;41951;49.022;12.066;2023-07-16T14:20:18;29.10;99.90
56076;DHT22;41951;49.022;12.066;2023-07-16T14:22:44;29.30;99.90
56076;DHT22;41951;49.022;12.066;2023-07-16T14:25:10;29.80;99.90
56076;DHT22;41951;49.022;12.066;2023-07-16T14:27:35;29.60;99.90
56076;DHT22;41951;49.022;12.066;2023-07-16T14:30:01;29.50;99.90
56076;DHT22;41951;49.022;12.066;2023-07-16T14:32:27;29.60;99.90
56076;DHT22;41951;49.022;12.066;2023-07-16T14:34:52;29.50;99.90
56076;DHT22;41951;49.022;12.066;2023-07-16T14:37:18;29.30;99.90
56076;DHT22;41951;49.022;12.066;2023-07-16T14:39:44;28.90;99.90
56076;DHT22;41951;49.022;12.066;2023-07-16T14:42:09;28.70;99.90
56076;DHT22;41951;49.022;12.066;2023-07-16T14:44:35;28.40;99.90
56076;DHT22;41951;49.022;12.066;2023-07-16T14:47:00;28.30;99.90
56076;DHT22;41951;49.022;12.066;2023-07-16T14:49:26;28.40;99.90
56076;DHT22;41951;49.022;12.066;2023-07-16T14:51:52;28.40;99.90
56076;DHT22;41951;49.022;12.066;2023-07-16T14:54:17;28.30;99.90
56076;DHT22;41951;49.022;12.066;2023-07-16T14:56:43;28.30;99.90
56076;DHT22;41951;49.022;12.066;2023-07-16T14:59:08;28.70;99.90
56076;DHT22;41951;49.022;12.066;2023-07-16T15:01:34;29.10;99.90
56076;DHT22;41951;49.022;12.066;2023-07-16T15:04:00;29.60;99.90
56076;DHT22;41951;49.022;12.066;2023-07-16T15:06:25;29.90;99.90
56076;DHT22;41951;49.022;12.066;2023-07-16T15:08:51;30.00;99.30
56076;DHT22;41951;49.022;12.066;2023-07-16T15:11:17;30.20;99.30
56076;DHT22;41951;49.022;12.066;2023-07-16T15:13:43;30.40;99.10
56076;DHT22;41951;49.022;12.066;2023-07-16T15:16:08;30.50;98.60